sensor_id;sensor_type;location;lat;lon;timestamp;P1;durP1;ratioP1;P2;durP2;ratioP2
12707;SDS011;6418;50.824;4.718;2023-02-28T00:00:11;16.43;;;9.17;;
12707;SDS011;6418;50.824;4.718;2023-02-28T00:02:40;19.90;;;9.50;;
12707;SDS011;6418;50.824;4.718;2023-02-28T00:05:08;16.97;;;9.70;;
12707;SDS011;6418;50.824;4.718;2023-02-28T00:07:36;14.70;;;8.33;;
12707;SDS011;6418;50.824;4.718;2023-02-28T00:10:04;21.63;;;10.20;;
12707;SDS011;6418;50.824;4.718;2023-02-28T00:12:34;17.13;;;9.80;;
12707;SDS011;6418;50.824;4.718;2023-02-28T00:15:02;21.20;;;9.50;;
12707;SDS011;6418;50.824;4.718;2023-02-28T00:17:31;20.87;;;10.37;;
12707;SDS011;6418;50.824;4.718;2023-02-28T00:19:58;18.43;;;9.77;;
12707;SDS011;6418;50.824;4.718;2023-02-28T00:22:37;21.50;;;10.90;;
12707;SDS011;6418;50.824;4.718;2023-02-28T00:25:05;17.60;;;10.17;;
12707;SDS011;6418;50.824;4.718;2023-02-28T00:27:34;20.73;;;9.80;;
12707;SDS011;6418;50.824;4.718;2023-02-28T00:30:02;21.33;;;9.60;;
12707;SDS011;6418;50.824;4.718;2023-02-28T00:32:30;17.03;;;9.00;;
12707;SDS011;6418;50.824;4.718;2023-02-28T00:34:57;16.40;;;9.10;;
12707;SDS011;6418;50.824;4.718;2023-02-28T00:37:24;16.13;;;9.30;;
12707;SDS011;6418;50.824;4.718;2023-02-28T00:39:50;18.23;;;9.30;;
12707;SDS011;6418;50.824;4.718;2023-02-28T00:42:17;15.93;;;8.77;;
12707;SDS011;6418;50.824;4.718;2023-02-28T00:44:46;19.70;;;9.53;;
12707;SDS011;6418;50.824;4.718;2023-02-28T00:47:13;16.33;;;9.57;;
12707;SDS011;6418;50.824;4.718;2023-02-28T00:49:40;17.67;;;10.07;;
12707;SDS011;6418;50.824;4.718;2023-02-28T00:52:07;16.93;;;9.53;;
12707;SDS011;6418;50.824;4.718;2023-02-28T00:54:34;14.67;;;9.20;;
12707;SDS011;6418;50.824;4.718;2023-02-28T00:57:01;19.03;;;8.97;;
12707;SDS011;6418;50.824;4.718;2023-02-28T00:59:28;15.00;;;8.50;;
12707;SDS011;6418;50.824;4.718;2023-02-28T01:01:56;18.93;;;9.70;;
12707;SDS011;6418;50.824;4.718;2023-02-28T01:04:23;17.63;;;9.30;;
12707;SDS011;6418;50.824;4.718;2023-02-28T01:06:50;17.80;;;9.50;;
12707;SDS011;6418;50.824;4.718;2023-02-28T01:09:17;18.07;;;9.70;;
12707;SDS011;6418;50.824;4.718;2023-02-28T01:11:44;15.80;;;9.63;;
12707;SDS011;6418;50.824;4.718;2023-02-28T01:14:11;19.00;;;9.83;;
12707;SDS011;6418;50.824;4.718;2023-02-28T01:16:43;16.20;;;9.07;;
12707;SDS011;6418;50.824;4.718;2023-02-28T01:19:11;19.07;;;9.50;;
12707;SDS011;6418;50.824;4.718;2023-02-28T01:21:38;17.47;;;9.10;;
12707;SDS011;6418;50.824;4.718;2023-02-28T01:24:06;16.30;;;8.97;;
12707;SDS011;6418;50.824;4.718;2023-02-28T01:26:33;16.37;;;9.10;;
12707;SDS011;6418;50.824;4.718;2023-02-28T01:29:03;17.47;;;9.50;;
12707;SDS011;6418;50.824;4.718;2023-02-28T01:31:31;17.07;;;9.27;;
12707;SDS011;6418;50.824;4.718;2023-02-28T01:33:58;18.83;;;9.13;;
12707;SDS011;6418;50.824;4.718;2023-02-28T01:36:26;20.73;;;9.30;;
12707;SDS011;6418;50.824;4.718;2023-02-28T01:38:53;17.83;;;9.60;;
12707;SDS011;6418;50.824;4.718;2023-02-28T01:41:21;15.70;;;9.10;;
12707;SDS011;6418;50.824;4.718;2023-02-28T01:43:53;15.80;;;9.13;;
12707;SDS011;6418;50.824;4.718;2023-02-28T01:46:22;19.30;;;9.60;;
12707;SDS011;6418;50.824;4.718;2023-02-28T01:48:51;19.23;;;10.10;;
12707;SDS011;6418;50.824;4.718;2023-02-28T01:51:21;15.83;;;9.50;;
12707;SDS011;6418;50.824;4.718;2023-02-28T01:53:54;19.67;;;9.90;;
12707;SDS011;6418;50.824;4.718;2023-02-28T01:56:26;17.77;;;9.63;;
12707;SDS011;6418;50.824;4.718;2023-02-28T01:58:56;18.90;;;9.20;;
12707;SDS011;6418;50.824;4.718;2023-02-28T02:01:23;19.97;;;9.60;;
12707;SDS011;6418;50.824;4.718;2023-02-28T02:03:53;19.73;;;9.80;;
12707;SDS011;6418;50.824;4.718;2023-02-28T02:06:23;17.60;;;9.93;;
12707;SDS011;6418;50.824;4.718;2023-02-28T02:08:55;16.27;;;9.20;;
12707;SDS011;6418;50.824;4.718;2023-02-28T02:11:22;18.87;;;9.50;;
12707;SDS011;6418;50.824;4.718;2023-02-28T02:14:01;15.53;;;9.83;;
12707;SDS011;6418;50.824;4.718;2023-02-28T02:16:47;16.67;;;9.90;;
12707;SDS011;6418;50.824;4.718;2023-02-28T02:22:28;17.27;;;9.83;;
12707;SDS011;6418;50.824;4.718;2023-02-28T02:25:32;17.50;;;8.90;;
12707;SDS011;6418;50.824;4.718;2023-02-28T02:28:17;16.07;;;9.60;;
12707;SDS011;6418;50.824;4.718;2023-02-28T02:31:06;21.60;;;10.10;;
12707;SDS011;6418;50.824;4.718;2023-02-28T02:34:19;17.33;;;9.77;;
12707;SDS011;6418;50.824;4.718;2023-02-28T02:36:55;18.77;;;10.00;;
12707;SDS011;6418;50.824;4.718;2023-02-28T02:39:27;17.23;;;9.90;;
12707;SDS011;6418;50.824;4.718;2023-02-28T02:42:03;16.77;;;10.10;;
12707;SDS011;6418;50.824;4.718;2023-02-28T02:44:40;18.63;;;9.63;;
12707;SDS011;6418;50.824;4.718;2023-02-28T02:47:11;17.63;;;9.13;;
12707;SDS011;6418;50.824;4.718;2023-02-28T02:49:43;20.30;;;10.30;;
12707;SDS011;6418;50.824;4.718;2023-02-28T02:52:15;16.63;;;9.67;;
12707;SDS011;6418;50.824;4.718;2023-02-28T02:54:45;16.57;;;9.20;;
12707;SDS011;6418;50.824;4.718;2023-02-28T02:57:15;18.33;;;10.03;;
12707;SDS011;6418;50.824;4.718;2023-02-28T02:59:47;20.47;;;9.90;;
12707;SDS011;6418;50.824;4.718;2023-02-28T03:02:16;18.33;;;10.07;;
12707;SDS011;6418;50.824;4.718;2023-02-28T03:04:48;19.37;;;10.37;;
12707;SDS011;6418;50.824;4.718;2023-02-28T03:07:18;16.37;;;9.97;;
12707;SDS011;6418;50.824;4.718;2023-02-28T03:09:52;21.40;;;10.27;;
12707;SDS011;6418;50.824;4.718;2023-02-28T03:12:19;19.13;;;10.17;;
12707;SDS011;6418;50.824;4.718;2023-02-28T03:15:00;16.47;;;9.70;;
12707;SDS011;6418;50.824;4.718;2023-02-28T03:17:38;16.80;;;10.37;;
12707;SDS011;6418;50.824;4.718;2023-02-28T03:20:24;20.53;;;10.90;;
12707;SDS011;6418;50.824;4.718;2023-02-28T03:22:58;22.60;;;10.50;;
12707;SDS011;6418;50.824;4.718;2023-02-28T03:25:37;21.47;;;10.67;;
12707;SDS011;6418;50.824;4.718;2023-02-28T03:28:19;18.93;;;9.63;;
12707;SDS011;6418;50.824;4.718;2023-02-28T03:30:58;16.43;;;9.87;;
12707;SDS011;6418;50.824;4.718;2023-02-28T03:33:30;18.77;;;9.90;;
12707;SDS011;6418;50.824;4.718;2023-02-28T03:36:04;16.93;;;9.70;;
12707;SDS011;6418;50.824;4.718;2023-02-28T03:38:35;19.00;;;10.27;;
12707;SDS011;6418;50.824;4.718;2023-02-28T03:41:06;19.73;;;10.30;;
12707;SDS011;6418;50.824;4.718;2023-02-28T03:43:39;18.87;;;10.13;;
12707;SDS011;6418;50.824;4.718;2023-02-28T03:46:09;18.80;;;10.27;;
12707;SDS011;6418;50.824;4.718;2023-02-28T03:48:40;18.50;;;9.80;;
12707;SDS011;6418;50.824;4.718;2023-02-28T03:51:12;18.77;;;10.90;;
12707;SDS011;6418;50.824;4.718;2023-02-28T03:53:44;18.53;;;10.50;;
12707;SDS011;6418;50.824;4.718;2023-02-28T03:56:15;19.83;;;10.93;;
12707;SDS011;6418;50.824;4.718;2023-02-28T03:58:47;21.60;;;10.60;;
12707;SDS011;6418;50.824;4.718;2023-02-28T04:01:20;20.03;;;11.17;;
12707;SDS011;6418;50.824;4.718;2023-02-28T04:03:50;19.17;;;10.97;;
12707;SDS011;6418;50.824;4.718;2023-02-28T04:06:20;20.30;;;10.50;;
12707;SDS011;6418;50.824;4.718;2023-02-28T04:08:49;17.13;;;10.37;;
12707;SDS011;6418;50.824;4.718;2023-02-28T04:11:18;20.73;;;11.03;;
12707;SDS011;6418;50.824;4.718;2023-02-28T04:13:48;17.83;;;11.50;;
12707;SDS011;6418;50.824;4.718;2023-02-28T04:16:15;21.40;;;11.07;;
12707;SDS011;6418;50.824;4.718;2023-02-28T04:18:42;23.70;;;12.33;;
12707;SDS011;6418;50.824;4.718;2023-02-28T04:21:09;23.70;;;12.57;;
12707;SDS011;6418;50.824;4.718;2023-02-28T04:23:38;21.20;;;11.40;;
12707;SDS011;6418;50.824;4.718;2023-02-28T04:26:05;21.13;;;12.63;;
12707;SDS011;6418;50.824;4.718;2023-02-28T04:28:32;22.83;;;11.77;;
12707;SDS011;6418;50.824;4.718;2023-02-28T04:31:02;22.67;;;12.33;;
12707;SDS011;6418;50.824;4.718;2023-02-28T04:33:31;21.60;;;11.60;;
12707;SDS011;6418;50.824;4.718;2023-02-28T04:35:59;19.27;;;11.77;;
12707;SDS011;6418;50.824;4.718;2023-02-28T04:38:29;20.80;;;12.17;;
12707;SDS011;6418;50.824;4.718;2023-02-28T04:40:59;18.73;;;11.83;;
12707;SDS011;6418;50.824;4.718;2023-02-28T04:43:27;20.77;;;11.80;;
12707;SDS011;6418;50.824;4.718;2023-02-28T04:45:55;21.73;;;12.83;;
12707;SDS011;6418;50.824;4.718;2023-02-28T04:48:22;22.17;;;12.80;;
12707;SDS011;6418;50.824;4.718;2023-02-28T04:50:50;20.27;;;12.57;;
12707;SDS011;6418;50.824;4.718;2023-02-28T04:53:17;23.43;;;12.47;;
12707;SDS011;6418;50.824;4.718;2023-02-28T04:55:44;24.27;;;13.10;;
12707;SDS011;6418;50.824;4.718;2023-02-28T04:58:13;21.20;;;12.00;;
12707;SDS011;6418;50.824;4.718;2023-02-28T05:00:41;26.73;;;13.53;;
12707;SDS011;6418;50.824;4.718;2023-02-28T05:03:08;23.20;;;13.97;;
12707;SDS011;6418;50.824;4.718;2023-02-28T05:05:35;22.37;;;12.50;;
12707;SDS011;6418;50.824;4.718;2023-02-28T05:08:02;22.87;;;13.43;;
12707;SDS011;6418;50.824;4.718;2023-02-28T05:10:30;22.27;;;13.93;;
12707;SDS011;6418;50.824;4.718;2023-02-28T05:12:57;26.03;;;13.80;;
12707;SDS011;6418;50.824;4.718;2023-02-28T05:15:25;22.77;;;13.60;;
12707;SDS011;6418;50.824;4.718;2023-02-28T05:17:52;23.33;;;12.97;;
12707;SDS011;6418;50.824;4.718;2023-02-28T05:20:19;23.40;;;13.30;;
12707;SDS011;6418;50.824;4.718;2023-02-28T05:22:49;24.37;;;14.27;;
12707;SDS011;6418;50.824;4.718;2023-02-28T05:25:17;28.40;;;14.50;;
12707;SDS011;6418;50.824;4.718;2023-02-28T05:27:47;23.30;;;14.40;;
12707;SDS011;6418;50.824;4.718;2023-02-28T05:30:14;25.70;;;13.83;;
12707;SDS011;6418;50.824;4.718;2023-02-28T05:32:43;25.77;;;13.90;;
12707;SDS011;6418;50.824;4.718;2023-02-28T05:35:10;23.30;;;14.37;;
12707;SDS011;6418;50.824;4.718;2023-02-28T05:37:37;27.13;;;14.43;;
12707;SDS011;6418;50.824;4.718;2023-02-28T05:40:06;22.33;;;14.30;;
12707;SDS011;6418;50.824;4.718;2023-02-28T05:42:35;24.57;;;15.27;;
12707;SDS011;6418;50.824;4.718;2023-02-28T05:45:02;26.53;;;14.80;;
12707;SDS011;6418;50.824;4.718;2023-02-28T05:47:30;22.53;;;13.87;;
12707;SDS011;6418;50.824;4.718;2023-02-28T05:49:59;26.23;;;15.53;;
12707;SDS011;6418;50.824;4.718;2023-02-28T05:52:26;25.33;;;14.43;;
12707;SDS011;6418;50.824;4.718;2023-02-28T05:54:53;25.20;;;15.27;;
12707;SDS011;6418;50.824;4.718;2023-02-28T05:57:20;28.97;;;15.50;;
12707;SDS011;6418;50.824;4.718;2023-02-28T05:59:46;30.03;;;15.50;;
12707;SDS011;6418;50.824;4.718;2023-02-28T06:02:14;27.97;;;15.60;;
12707;SDS011;6418;50.824;4.718;2023-02-28T06:04:42;26.77;;;15.47;;
12707;SDS011;6418;50.824;4.718;2023-02-28T06:07:11;26.87;;;15.50;;
12707;SDS011;6418;50.824;4.718;2023-02-28T06:09:38;25.93;;;15.77;;
12707;SDS011;6418;50.824;4.718;2023-02-28T06:12:06;29.30;;;16.90;;
12707;SDS011;6418;50.824;4.718;2023-02-28T06:14:34;25.03;;;15.43;;
12707;SDS011;6418;50.824;4.718;2023-02-28T06:17:02;25.57;;;15.60;;
12707;SDS011;6418;50.824;4.718;2023-02-28T06:19:30;28.80;;;14.97;;
12707;SDS011;6418;50.824;4.718;2023-02-28T06:21:57;25.67;;;15.67;;
12707;SDS011;6418;50.824;4.718;2023-02-28T06:24:26;23.93;;;15.33;;
12707;SDS011;6418;50.824;4.718;2023-02-28T06:26:54;26.67;;;15.83;;
12707;SDS011;6418;50.824;4.718;2023-02-28T06:29:21;28.73;;;16.03;;
12707;SDS011;6418;50.824;4.718;2023-02-28T06:31:48;28.67;;;16.30;;
12707;SDS011;6418;50.824;4.718;2023-02-28T06:34:15;28.23;;;16.20;;
12707;SDS011;6418;50.824;4.718;2023-02-28T06:36:42;25.13;;;16.47;;
12707;SDS011;6418;50.824;4.718;2023-02-28T06:39:09;28.30;;;16.50;;
12707;SDS011;6418;50.824;4.718;2023-02-28T06:41:37;27.10;;;16.63;;
12707;SDS011;6418;50.824;4.718;2023-02-28T06:44:05;27.43;;;16.10;;
12707;SDS011;6418;50.824;4.718;2023-02-28T06:46:38;28.13;;;17.50;;
12707;SDS011;6418;50.824;4.718;2023-02-28T06:49:05;30.50;;;16.93;;
12707;SDS011;6418;50.824;4.718;2023-02-28T06:51:34;29.63;;;16.83;;
12707;SDS011;6418;50.824;4.718;2023-02-28T06:54:02;25.67;;;16.23;;
12707;SDS011;6418;50.824;4.718;2023-02-28T06:56:29;27.97;;;16.83;;
12707;SDS011;6418;50.824;4.718;2023-02-28T06:58:58;27.83;;;16.37;;
12707;SDS011;6418;50.824;4.718;2023-02-28T07:01:25;25.03;;;15.87;;
12707;SDS011;6418;50.824;4.718;2023-02-28T07:03:53;27.83;;;16.20;;
12707;SDS011;6418;50.824;4.718;2023-02-28T07:06:20;28.03;;;16.40;;
12707;SDS011;6418;50.824;4.718;2023-02-28T07:08:48;24.47;;;15.73;;
12707;SDS011;6418;50.824;4.718;2023-02-28T07:11:15;26.57;;;15.97;;
12707;SDS011;6418;50.824;4.718;2023-02-28T07:13:43;24.33;;;14.97;;
12707;SDS011;6418;50.824;4.718;2023-02-28T07:16:13;25.57;;;15.43;;
12707;SDS011;6418;50.824;4.718;2023-02-28T07:18:39;28.10;;;15.37;;
12707;SDS011;6418;50.824;4.718;2023-02-28T07:21:07;26.50;;;16.27;;
12707;SDS011;6418;50.824;4.718;2023-02-28T07:23:35;28.63;;;16.40;;
12707;SDS011;6418;50.824;4.718;2023-02-28T07:26:04;27.67;;;15.40;;
12707;SDS011;6418;50.824;4.718;2023-02-28T07:28:31;28.33;;;15.90;;
12707;SDS011;6418;50.824;4.718;2023-02-28T07:31:02;24.73;;;14.73;;
12707;SDS011;6418;50.824;4.718;2023-02-28T07:33:31;26.93;;;15.00;;
12707;SDS011;6418;50.824;4.718;2023-02-28T07:36:02;24.40;;;14.50;;
12707;SDS011;6418;50.824;4.718;2023-02-28T07:38:30;28.17;;;15.47;;
12707;SDS011;6418;50.824;4.718;2023-02-28T07:40:57;22.40;;;14.30;;
12707;SDS011;6418;50.824;4.718;2023-02-28T07:43:24;25.77;;;14.70;;
12707;SDS011;6418;50.824;4.718;2023-02-28T07:45:51;27.17;;;15.13;;
12707;SDS011;6418;50.824;4.718;2023-02-28T07:48:18;25.67;;;15.53;;
12707;SDS011;6418;50.824;4.718;2023-02-28T07:50:49;25.37;;;14.60;;
12707;SDS011;6418;50.824;4.718;2023-02-28T07:53:21;22.30;;;13.43;;
12707;SDS011;6418;50.824;4.718;2023-02-28T07:55:48;22.23;;;13.67;;
12707;SDS011;6418;50.824;4.718;2023-02-28T07:58:15;22.20;;;13.33;;
12707;SDS011;6418;50.824;4.718;2023-02-28T08:00:42;22.63;;;12.07;;
12707;SDS011;6418;50.824;4.718;2023-02-28T08:03:10;23.23;;;12.50;;
12707;SDS011;6418;50.824;4.718;2023-02-28T08:05:38;20.60;;;11.50;;
12707;SDS011;6418;50.824;4.718;2023-02-28T08:08:07;19.90;;;12.43;;
12707;SDS011;6418;50.824;4.718;2023-02-28T08:10:34;20.70;;;12.10;;
12707;SDS011;6418;50.824;4.718;2023-02-28T08:13:01;18.10;;;11.57;;
12707;SDS011;6418;50.824;4.718;2023-02-28T08:15:31;20.03;;;11.03;;
12707;SDS011;6418;50.824;4.718;2023-02-28T08:17:58;20.03;;;11.40;;
12707;SDS011;6418;50.824;4.718;2023-02-28T08:20:27;19.37;;;11.63;;
12707;SDS011;6418;50.824;4.718;2023-02-28T08:22:54;18.47;;;10.27;;
12707;SDS011;6418;50.824;4.718;2023-02-28T08:25:22;19.03;;;10.67;;
12707;SDS011;6418;50.824;4.718;2023-02-28T08:27:50;15.50;;;9.57;;
12707;SDS011;6418;50.824;4.718;2023-02-28T08:30:18;18.87;;;10.10;;
12707;SDS011;6418;50.824;4.718;2023-02-28T08:32:45;18.00;;;9.73;;
12707;SDS011;6418;50.824;4.718;2023-02-28T08:35:11;20.57;;;10.37;;
12707;SDS011;6418;50.824;4.718;2023-02-28T08:37:38;19.83;;;9.93;;
12707;SDS011;6418;50.824;4.718;2023-02-28T08:40:06;16.50;;;8.70;;
12707;SDS011;6418;50.824;4.718;2023-02-28T08:42:35;16.00;;;8.70;;
12707;SDS011;6418;50.824;4.718;2023-02-28T08:45:04;17.20;;;10.17;;
12707;SDS011;6418;50.824;4.718;2023-02-28T08:47:32;17.90;;;9.60;;
12707;SDS011;6418;50.824;4.718;2023-02-28T08:49:59;17.73;;;9.17;;
12707;SDS011;6418;50.824;4.718;2023-02-28T08:52:26;17.30;;;9.07;;
12707;SDS011;6418;50.824;4.718;2023-02-28T08:54:53;15.00;;;8.60;;
12707;SDS011;6418;50.824;4.718;2023-02-28T08:57:21;14.67;;;9.00;;
12707;SDS011;6418;50.824;4.718;2023-02-28T08:59:52;16.10;;;8.23;;
12707;SDS011;6418;50.824;4.718;2023-02-28T09:02:19;14.50;;;7.90;;
12707;SDS011;6418;50.824;4.718;2023-02-28T09:04:46;15.07;;;7.80;;
12707;SDS011;6418;50.824;4.718;2023-02-28T09:07:13;13.60;;;7.60;;
12707;SDS011;6418;50.824;4.718;2023-02-28T09:09:40;14.07;;;7.50;;
12707;SDS011;6418;50.824;4.718;2023-02-28T09:12:18;14.13;;;7.53;;
12707;SDS011;6418;50.824;4.718;2023-02-28T09:14:45;15.77;;;7.00;;
12707;SDS011;6418;50.824;4.718;2023-02-28T09:17:14;13.60;;;7.10;;
12707;SDS011;6418;50.824;4.718;2023-02-28T09:19:41;11.70;;;6.60;;
12707;SDS011;6418;50.824;4.718;2023-02-28T09:22:08;15.13;;;7.27;;
12707;SDS011;6418;50.824;4.718;2023-02-28T09:24:36;12.33;;;6.83;;
12707;SDS011;6418;50.824;4.718;2023-02-28T09:27:04;16.30;;;6.40;;
12707;SDS011;6418;50.824;4.718;2023-02-28T09:29:31;13.47;;;7.23;;
12707;SDS011;6418;50.824;4.718;2023-02-28T09:31:59;12.43;;;6.40;;
12707;SDS011;6418;50.824;4.718;2023-02-28T09:34:28;12.37;;;6.53;;
12707;SDS011;6418;50.824;4.718;2023-02-28T09:36:56;12.13;;;6.70;;
12707;SDS011;6418;50.824;4.718;2023-02-28T09:39:23;12.03;;;6.67;;
12707;SDS011;6418;50.824;4.718;2023-02-28T09:41:52;11.80;;;6.43;;
12707;SDS011;6418;50.824;4.718;2023-02-28T09:44:21;13.10;;;6.57;;
12707;SDS011;6418;50.824;4.718;2023-02-28T09:46:53;12.77;;;5.93;;
12707;SDS011;6418;50.824;4.718;2023-02-28T09:49:31;11.80;;;6.40;;
12707;SDS011;6418;50.824;4.718;2023-02-28T09:52:03;10.87;;;5.80;;
12707;SDS011;6418;50.824;4.718;2023-02-28T09:54:34;10.67;;;6.27;;
12707;SDS011;6418;50.824;4.718;2023-02-28T09:57:06;10.73;;;5.67;;
12707;SDS011;6418;50.824;4.718;2023-02-28T09:59:39;12.00;;;6.07;;
12707;SDS011;6418;50.824;4.718;2023-02-28T10:02:20;10.30;;;5.83;;
12707;SDS011;6418;50.824;4.718;2023-02-28T10:05:06;11.63;;;6.00;;
12707;SDS011;6418;50.824;4.718;2023-02-28T10:07:48;10.97;;;5.80;;
12707;SDS011;6418;50.824;4.718;2023-02-28T10:10:25;9.50;;;5.50;;
12707;SDS011;6418;50.824;4.718;2023-02-28T10:12:57;11.60;;;5.33;;
12707;SDS011;6418;50.824;4.718;2023-02-28T10:15:27;15.93;;;10.63;;
12707;SDS011;6418;50.824;4.718;2023-02-28T10:17:58;20.70;;;10.97;;
12707;SDS011;6418;50.824;4.718;2023-02-28T10:20:30;12.53;;;7.30;;
12707;SDS011;6418;50.824;4.718;2023-02-28T10:23:02;13.33;;;7.97;;
12707;SDS011;6418;50.824;4.718;2023-02-28T10:25:35;12.90;;;7.10;;
12707;SDS011;6418;50.824;4.718;2023-02-28T10:28:10;12.70;;;8.20;;
12707;SDS011;6418;50.824;4.718;2023-02-28T10:30:39;11.93;;;6.67;;
12707;SDS011;6418;50.824;4.718;2023-02-28T10:33:11;11.50;;;6.33;;
12707;SDS011;6418;50.824;4.718;2023-02-28T10:35:49;10.83;;;6.53;;
12707;SDS011;6418;50.824;4.718;2023-02-28T10:38:17;11.20;;;6.03;;
12707;SDS011;6418;50.824;4.718;2023-02-28T10:40:45;13.10;;;6.70;;
12707;SDS011;6418;50.824;4.718;2023-02-28T10:43:19;12.70;;;6.37;;
12707;SDS011;6418;50.824;4.718;2023-02-28T10:45:53;12.73;;;7.20;;
12707;SDS011;6418;50.824;4.718;2023-02-28T10:48:27;14.37;;;7.53;;
12707;SDS011;6418;50.824;4.718;2023-02-28T10:51:00;12.57;;;6.97;;
12707;SDS011;6418;50.824;4.718;2023-02-28T10:53:30;17.73;;;9.13;;
12707;SDS011;6418;50.824;4.718;2023-02-28T10:56:01;19.20;;;12.20;;
12707;SDS011;6418;50.824;4.718;2023-02-28T10:58:40;20.60;;;10.13;;
12707;SDS011;6418;50.824;4.718;2023-02-28T11:01:20;13.70;;;7.43;;
12707;SDS011;6418;50.824;4.718;2023-02-28T11:03:48;15.40;;;10.30;;
12707;SDS011;6418;50.824;4.718;2023-02-28T11:06:18;11.77;;;6.13;;
12707;SDS011;6418;50.824;4.718;2023-02-28T11:08:51;12.17;;;7.40;;
12707;SDS011;6418;50.824;4.718;2023-02-28T11:11:20;13.07;;;5.67;;
12707;SDS011;6418;50.824;4.718;2023-02-28T11:13:50;11.00;;;5.80;;
12707;SDS011;6418;50.824;4.718;2023-02-28T11:16:22;8.03;;;4.80;;
12707;SDS011;6418;50.824;4.718;2023-02-28T11:19:00;9.90;;;6.30;;
12707;SDS011;6418;50.824;4.718;2023-02-28T11:21:30;9.40;;;6.00;;
12707;SDS011;6418;50.824;4.718;2023-02-28T11:24:00;8.10;;;4.60;;
12707;SDS011;6418;50.824;4.718;2023-02-28T11:26:37;10.73;;;6.23;;
12707;SDS011;6418;50.824;4.718;2023-02-28T11:29:11;17.67;;;11.87;;
12707;SDS011;6418;50.824;4.718;2023-02-28T11:32:00;15.77;;;8.60;;
12707;SDS011;6418;50.824;4.718;2023-02-28T11:34:30;14.60;;;8.03;;
12707;SDS011;6418;50.824;4.718;2023-02-28T11:36:59;11.43;;;6.07;;
12707;SDS011;6418;50.824;4.718;2023-02-28T11:39:30;11.93;;;6.37;;
12707;SDS011;6418;50.824;4.718;2023-02-28T11:42:01;15.43;;;8.00;;
12707;SDS011;6418;50.824;4.718;2023-02-28T11:44:41;10.07;;;5.83;;
12707;SDS011;6418;50.824;4.718;2023-02-28T11:47:28;9.63;;;5.63;;
12707;SDS011;6418;50.824;4.718;2023-02-28T11:52:58;8.73;;;5.00;;
12707;SDS011;6418;50.824;4.718;2023-02-28T11:55:31;7.70;;;4.93;;
12707;SDS011;6418;50.824;4.718;2023-02-28T11:58:05;8.73;;;5.10;;
12707;SDS011;6418;50.824;4.718;2023-02-28T12:00:47;9.20;;;5.20;;
12707;SDS011;6418;50.824;4.718;2023-02-28T12:03:31;9.40;;;5.10;;
12707;SDS011;6418;50.824;4.718;2023-02-28T12:06:09;8.50;;;4.97;;
12707;SDS011;6418;50.824;4.718;2023-02-28T12:08:49;7.30;;;4.67;;
12707;SDS011;6418;50.824;4.718;2023-02-28T12:11:29;7.50;;;5.03;;
12707;SDS011;6418;50.824;4.718;2023-02-28T12:16:57;9.73;;;5.20;;
12707;SDS011;6418;50.824;4.718;2023-02-28T12:19:35;8.57;;;5.10;;
12707;SDS011;6418;50.824;4.718;2023-02-28T12:22:12;9.27;;;5.00;;
12707;SDS011;6418;50.824;4.718;2023-02-28T12:25:06;6.67;;;4.70;;
12707;SDS011;6418;50.824;4.718;2023-02-28T12:27:56;8.57;;;5.00;;
12707;SDS011;6418;50.824;4.718;2023-02-28T12:30:24;9.50;;;5.20;;
12707;SDS011;6418;50.824;4.718;2023-02-28T12:32:54;8.80;;;5.10;;
12707;SDS011;6418;50.824;4.718;2023-02-28T12:35:27;8.03;;;4.80;;
12707;SDS011;6418;50.824;4.718;2023-02-28T12:38:01;7.97;;;4.90;;
12707;SDS011;6418;50.824;4.718;2023-02-28T12:40:42;8.07;;;4.90;;
12707;SDS011;6418;50.824;4.718;2023-02-28T12:43:14;7.43;;;4.70;;
12707;SDS011;6418;50.824;4.718;2023-02-28T12:45:44;6.27;;;4.27;;
12707;SDS011;6418;50.824;4.718;2023-02-28T12:48:15;7.13;;;4.50;;
12707;SDS011;6418;50.824;4.718;2023-02-28T12:50:47;7.83;;;4.87;;
12707;SDS011;6418;50.824;4.718;2023-02-28T12:53:17;9.03;;;4.73;;
12707;SDS011;6418;50.824;4.718;2023-02-28T12:55:54;10.03;;;5.00;;
12707;SDS011;6418;50.824;4.718;2023-02-28T12:58:29;6.70;;;4.70;;
12707;SDS011;6418;50.824;4.718;2023-02-28T13:01:28;8.03;;;4.83;;
12707;SDS011;6418;50.824;4.718;2023-02-28T13:07:11;6.80;;;4.53;;
12707;SDS011;6418;50.824;4.718;2023-02-28T13:10:02;7.90;;;4.37;;
12707;SDS011;6418;50.824;4.718;2023-02-28T13:12:34;8.97;;;4.60;;
12707;SDS011;6418;50.824;4.718;2023-02-28T13:15:04;9.23;;;4.77;;
12707;SDS011;6418;50.824;4.718;2023-02-28T13:17:37;7.97;;;4.67;;
12707;SDS011;6418;50.824;4.718;2023-02-28T13:20:14;8.83;;;5.07;;
12707;SDS011;6418;50.824;4.718;2023-02-28T13:22:43;9.07;;;4.80;;
12707;SDS011;6418;50.824;4.718;2023-02-28T13:31:33;8.33;;;4.80;;
12707;SDS011;6418;50.824;4.718;2023-02-28T13:34:46;8.20;;;4.60;;
12707;SDS011;6418;50.824;4.718;2023-02-28T13:37:36;9.73;;;4.70;;
12707;SDS011;6418;50.824;4.718;2023-02-28T13:40:27;8.90;;;4.93;;
12707;SDS011;6418;50.824;4.718;2023-02-28T13:43:02;9.80;;;4.83;;
12707;SDS011;6418;50.824;4.718;2023-02-28T13:45:30;8.83;;;4.60;;
12707;SDS011;6418;50.824;4.718;2023-02-28T13:48:03;9.70;;;4.70;;
12707;SDS011;6418;50.824;4.718;2023-02-28T13:50:32;11.20;;;4.80;;
12707;SDS011;6418;50.824;4.718;2023-02-28T13:53:29;9.13;;;4.50;;
12707;SDS011;6418;50.824;4.718;2023-02-28T13:56:07;9.43;;;4.93;;
12707;SDS011;6418;50.824;4.718;2023-02-28T13:58:49;8.33;;;4.77;;
12707;SDS011;6418;50.824;4.718;2023-02-28T14:07:16;8.23;;;4.70;;
12707;SDS011;6418;50.824;4.718;2023-02-28T14:09:49;9.27;;;5.30;;
12707;SDS011;6418;50.824;4.718;2023-02-28T14:15:30;7.63;;;4.77;;
12707;SDS011;6418;50.824;4.718;2023-02-28T14:18:20;12.53;;;5.00;;
12707;SDS011;6418;50.824;4.718;2023-02-28T14:20:52;8.23;;;4.97;;
12707;SDS011;6418;50.824;4.718;2023-02-28T14:23:26;8.27;;;5.17;;
12707;SDS011;6418;50.824;4.718;2023-02-28T14:26:08;8.50;;;5.23;;
12707;SDS011;6418;50.824;4.718;2023-02-28T14:28:46;9.83;;;5.27;;
12707;SDS011;6418;50.824;4.718;2023-02-28T14:31:28;10.10;;;5.70;;
12707;SDS011;6418;50.824;4.718;2023-02-28T14:34:10;11.50;;;5.63;;
12707;SDS011;6418;50.824;4.718;2023-02-28T14:36:48;9.33;;;5.33;;
12707;SDS011;6418;50.824;4.718;2023-02-28T14:39:19;9.50;;;5.40;;
12707;SDS011;6418;50.824;4.718;2023-02-28T14:41:50;8.57;;;5.33;;
12707;SDS011;6418;50.824;4.718;2023-02-28T14:44:17;9.90;;;5.17;;
12707;SDS011;6418;50.824;4.718;2023-02-28T14:46:47;9.47;;;5.20;;
12707;SDS011;6418;50.824;4.718;2023-02-28T14:49:24;10.00;;;5.30;;
12707;SDS011;6418;50.824;4.718;2023-02-28T14:52:01;8.33;;;5.43;;
12707;SDS011;6418;50.824;4.718;2023-02-28T14:54:31;11.50;;;5.43;;
12707;SDS011;6418;50.824;4.718;2023-02-28T14:57:00;8.90;;;5.30;;
12707;SDS011;6418;50.824;4.718;2023-02-28T14:59:28;9.73;;;5.10;;
12707;SDS011;6418;50.824;4.718;2023-02-28T15:04:52;9.47;;;5.87;;
12707;SDS011;6418;50.824;4.718;2023-02-28T15:07:20;10.97;;;5.40;;
12707;SDS011;6418;50.824;4.718;2023-02-28T15:10:06;8.47;;;5.53;;
12707;SDS011;6418;50.824;4.718;2023-02-28T15:12:39;9.70;;;5.60;;
12707;SDS011;6418;50.824;4.718;2023-02-28T15:15:14;10.10;;;5.83;;
12707;SDS011;6418;50.824;4.718;2023-02-28T15:17:42;9.17;;;5.60;;
12707;SDS011;6418;50.824;4.718;2023-02-28T15:20:12;9.87;;;5.50;;
12707;SDS011;6418;50.824;4.718;2023-02-28T15:22:41;9.07;;;4.70;;
12707;SDS011;6418;50.824;4.718;2023-02-28T15:25:09;10.40;;;6.00;;
12707;SDS011;6418;50.824;4.718;2023-02-28T15:27:42;8.33;;;5.27;;
12707;SDS011;6418;50.824;4.718;2023-02-28T15:30:15;9.17;;;5.20;;
12707;SDS011;6418;50.824;4.718;2023-02-28T15:32:44;8.70;;;5.07;;
12707;SDS011;6418;50.824;4.718;2023-02-28T15:35:28;9.23;;;5.63;;
12707;SDS011;6418;50.824;4.718;2023-02-28T15:37:58;11.27;;;5.50;;
12707;SDS011;6418;50.824;4.718;2023-02-28T15:40:28;10.00;;;5.43;;